»·PEaware :: N21056 KLGB-KCNO

N21056 :: KLGB-KCNO

FLIGHT INFORMATION

Flight Status: Arrived
Operator: Privately registered:
United States
More flights under this callsign
Pilot: Erik K. (18332)
Aircraft: CESSNA 172 SKYHAWK
(C172)
More flights by this aircraft type
Origin: KLGB Long Beach
United States
Destination: KCNO Chino
United States
More flights between these airports :: More routes between these airports
Route: SLI V8 PDZ
File this flight plan on PilotEdge
Remarks:
Altitude:
(Current/Filed)
5,000ft
Speed:
(Current/Filed)
110kts
Departed: 30-Sep-18 07:53 PM
Arrived: 30-Sep-18 08:35 PM
Distance/Time
Traveled:
27nm/0:42
Distance/Time
To Go:
Arrived

Flight Plot

Page will automatically refresh every two minutes.


Map Options




Map Legend


Flown Route
Filed Route
Departure Airport
Arrival Airport
Navaid (VOR, NDB)
Fix

Horizontal Profiles

Position Reports

Time Latitude Longitude Heading Altitude Ground
Speed
30-Sep-18 19:37 33.817767 -118.158613 89 64ft 0kts
30-Sep-18 19:38 33.817767 -118.158613 89 64ft 0kts
30-Sep-18 19:39 33.817767 -118.158613 89 64ft 0kts
30-Sep-18 19:40 33.817767 -118.158613 90 64ft 0kts
30-Sep-18 19:41 33.817767 -118.158613 90 64ft 0kts
30-Sep-18 19:42 33.817767 -118.158613 90 64ft 0kts
30-Sep-18 19:43 33.817339 -118.157468 38 64ft 6kts
30-Sep-18 19:44 33.818186 -118.156340 39 64ft 0kts
30-Sep-18 19:45 33.818187 -118.156340 39 64ft 0kts
30-Sep-18 19:46 33.818438 -118.155902 1 64ft 7kts
30-Sep-18 19:47 33.818172 -118.153785 133 64ft 14kts
30-Sep-18 19:48 33.814930 -118.149695 133 64ft 9kts
30-Sep-18 19:49 33.814571 -118.149251 139 64ft 0kts
30-Sep-18 19:50 33.814571 -118.149251 139 64ft 0kts
30-Sep-18 19:51 33.814571 -118.149251 139 64ft 0kts
30-Sep-18 19:52 33.814571 -118.149251 139 64ft 0kts
30-Sep-18 19:53 33.814571 -118.149251 139 64ft 0kts
30-Sep-18 19:54 33.814559 -118.149238 137 64ft 2kts
30-Sep-18 19:55 33.814081 -118.160250 270 254ft 59kts
30-Sep-18 19:56 33.816295 -118.180869 275 766ft 65kts
30-Sep-18 19:57 33.803642 -118.194436 224 1283ft 66kts
30-Sep-18 19:58 33.789742 -118.195979 140 1769ft 74kts
30-Sep-18 19:59 33.772888 -118.189865 208 2285ft 62kts
30-Sep-18 20:00 33.770923 -118.172541 77 2714ft 73kts
30-Sep-18 20:01 33.776626 -118.146521 72 3016ft 91kts
30-Sep-18 20:02 33.783891 -118.116260 73 3316ft 97kts
30-Sep-18 20:03 33.791389 -118.085327 75 3610ft 98kts
30-Sep-18 20:04 33.797921 -118.055968 74 3886ft 99kts
30-Sep-18 20:05 33.804855 -118.026033 74 4394ft 93kts
30-Sep-18 20:06 33.811618 -117.996929 76 4965ft 94kts
30-Sep-18 20:07 33.819759 -117.961258 76 5000ft 125kts
30-Sep-18 20:08 33.829010 -117.921103 77 4981ft 126kts
30-Sep-18 20:09 33.838235 -117.881118 77 4982ft 125kts
30-Sep-18 20:10 33.845938 -117.847699 77 4982ft 125kts
30-Sep-18 20:11 33.856689 -117.800836 76 4983ft 125kts
30-Sep-18 20:12 33.864337 -117.767075 73 4986ft 126kts
30-Sep-18 20:13 33.875861 -117.720362 73 4989ft 127kts
30-Sep-18 20:14 33.883666 -117.686778 73 4991ft 127kts
30-Sep-18 20:15 33.892581 -117.647214 71 4995ft 126kts
30-Sep-18 20:16 33.901226 -117.608507 70 4998ft 125kts
30-Sep-18 20:17 33.910010 -117.568587 71 5007ft 124kts
30-Sep-18 20:18 33.919090 -117.528376 66 5014ft 125kts
30-Sep-18 20:19 33.935162 -117.492120 60 5014ft 125kts
30-Sep-18 20:20 33.952431 -117.455954 55 5018ft 126kts
30-Sep-18 20:21 33.962116 -117.416350 92 4863ft 131kts
30-Sep-18 20:22 33.958117 -117.374649 97 4585ft 126kts
30-Sep-18 20:23 33.941680 -117.342830 139 4604ft 116kts
30-Sep-18 20:24 33.936152 -117.310658 24 4468ft 113kts
30-Sep-18 20:25 33.949784 -117.330281 262 4247ft 93kts
30-Sep-18 20:26 33.947102 -117.360967 266 3903ft 86kts
30-Sep-18 20:27 33.947499 -117.387247 290 3820ft 82kts
30-Sep-18 20:28 33.953028 -117.411780 267 3875ft 79kts
30-Sep-18 20:29 33.953262 -117.437570 279 3934ft 80kts
30-Sep-18 20:30 33.957508 -117.463477 274 3877ft 81kts
30-Sep-18 20:31 33.959839 -117.490961 275 3555ft 86kts
30-Sep-18 20:32 33.963113 -117.519478 278 3211ft 87kts
30-Sep-18 20:33 33.966250 -117.548171 272 2530ft 91kts
30-Sep-18 20:34 33.967517 -117.577833 279 1812ft 87kts
30-Sep-18 20:35 33.972725 -117.604623 282 1333ft 78kts
30-Sep-18 20:36 33.975914 -117.625073 270 959ft 56kts
30-Sep-18 20:37 33.976355 -117.636807 30 653ft 9kts

Navigation Log

Ident Type
Flight plan parsing failed, navigation log unavailable